AGGH/HIR METAR and TAF weather

Enter ICAO airport designator
Station Type Date Time Source
AGGH METAR 2019/08/19 13:00 UTC NOAA

AGGH 191300Z 14002KT 9999 FEW015 SCT100 23/23 Q1009


Station Type Date Time Source
AGGH Decoded METAR 2019/08/19 13:00 UTC NOAA

Station name not available
Aug 19, 2019 - 09:00 AM EDT / 2019.08.19 1300 UTC
Wind: from the SE (140 degrees) at 2 MPH (2 KT):0
Visibility: greater than 7 mile(s):0
Sky conditions: partly cloudy
Temperature: 73 F (23 C)
Dew Point: 73 F (23 C)
Relative Humidity: 100%
Pressure (altimeter): 29.80 in. Hg (1009 hPa)
ob: AGGH 191300Z 14002KT 9999 FEW015 SCT100 23/23 Q1009
cycle: 13

Station Type Date Time Source
AGGH TAF 2019/08/19 12:10 UTC NOAA

TAF AGGH 191105Z 1912/2012 11007KT 9999 FEW017 SCT030 T 24 23 23 26 Q 1010 1008 1007 1009

Example: see airport list